Lake Fork, Illinois
Current Conditions -  °F | °C
As of 3:55 AM on Sunday 23 Nov 2014 (Local Time) from KAAA Reporting Station
Scattered Clouds Scattered Clouds  
Wind Chill: 10°   Ceiling: Unl
Heat Index: 10°   Visibility: 10mi
Dew Point:   Wind: 8mph
Humidity: 77%   Direction: 170°S
Pressure: 29.77"   Gusts: NA
Location:  39.97°N, 89.35°W
Report Text: KAAA 230955Z AUTO 17007KT 10SM SCT070 SCT085 10/07 A2977 RMK AO2 T01030065
Loading
Personal Weather Stations






























Interactive Weather Map New forecast layout! Learn more

10-Day Weather Forecast

Advertisements
Track Severe Weather on mobile